createdAt,value
2023-01-18T00:02:27.427Z,100.00
2023-01-18T00:05:29.069Z,100.00
2023-01-18T00:08:31.884Z,100.00
2023-01-18T00:11:33.318Z,100.00
2023-01-18T00:14:34.737Z,100.00
2023-01-18T00:17:47.450Z,100.00
2023-01-18T00:20:48.875Z,100.00
2023-01-18T00:23:50.725Z,100.00
2023-01-18T00:26:52.153Z,100.00
2023-01-18T00:29:53.597Z,100.00
2023-01-18T00:32:59.143Z,100.00
2023-01-18T00:36:03.001Z,100.00
2023-01-18T00:39:04.505Z,100.00
2023-01-18T00:42:24.231Z,100.00
2023-01-18T00:45:25.953Z,100.00
2023-01-18T00:48:27.391Z,100.00
2023-01-18T00:51:28.777Z,100.00
2023-01-18T00:54:30.158Z,100.00
2023-01-18T00:57:31.605Z,100.00
2023-01-18T01:00:33.409Z,100.00
2023-01-18T01:03:54.921Z,100.00
2023-01-18T01:06:56.442Z,100.00
2023-01-18T01:09:58.109Z,100.00
2023-01-18T01:13:17.901Z,100.00
2023-01-18T01:16:38.390Z,100.00
2023-01-18T01:19:58.395Z,100.00
2023-01-18T01:23:34.097Z,100.00
2023-01-18T01:26:35.661Z,100.00
2023-01-18T01:29:37.998Z,100.00
2023-01-18T01:32:39.405Z,100.00
2023-01-18T01:35:40.776Z,100.00
2023-01-18T01:38:42.241Z,100.00
2023-01-18T01:41:43.713Z,100.00
2023-01-18T01:44:52.056Z,100.00
2023-01-18T01:47:54.485Z,100.00
2023-01-18T01:50:55.977Z,100.00
2023-01-18T01:54:01.614Z,100.00
2023-01-18T01:57:12.594Z,100.00
2023-01-18T02:00:24.204Z,100.00
2023-01-18T02:03:25.763Z,100.00
2023-01-18T02:06:34.251Z,100.00
2023-01-18T02:09:35.687Z,100.00
2023-01-18T02:12:40.581Z,100.00
2023-01-18T02:16:03.050Z,100.00
2023-01-18T02:19:22.359Z,100.00
2023-01-18T02:23:09.517Z,100.00
2023-01-18T02:26:41.561Z,100.00
2023-01-18T02:30:24.951Z,100.00
2023-01-18T02:33:42.842Z,100.00
2023-01-18T02:37:16.611Z,100.00
2023-01-18T02:40:32.136Z,100.00
2023-01-18T02:43:53.648Z,100.00
2023-01-18T02:46:55.255Z,100.00
2023-01-18T02:49:57.667Z,100.00
2023-01-18T02:52:59.380Z,100.00
2023-01-18T02:56:03.547Z,100.00
2023-01-18T02:59:35.135Z,100.00
2023-01-18T03:02:39.408Z,100.00
2023-01-18T03:05:42.987Z,100.00
2023-01-18T03:08:50.351Z,100.00
2023-01-18T03:12:02.138Z,100.00
2023-01-18T03:15:18.754Z,100.00
2023-01-18T03:18:35.494Z,100.00
2023-01-18T03:21:43.262Z,100.00
2023-01-18T03:24:45.884Z,100.00
2023-01-18T03:28:09.711Z,100.00
2023-01-18T03:31:35.541Z,100.00
2023-01-18T03:35:08.831Z,100.00
2023-01-18T03:38:10.617Z,100.00
2023-01-18T03:41:15.518Z,100.00
2023-01-18T03:44:25.571Z,100.00
2023-01-18T03:47:27.130Z,100.00
2023-01-18T03:50:39.100Z,100.00
2023-01-18T03:53:54.343Z,100.00
2023-01-18T03:57:15.253Z,100.00
2023-01-18T04:00:18.058Z,100.00
2023-01-18T04:03:19.422Z,100.00
2023-01-18T04:06:22.821Z,100.00
2023-01-18T04:09:25.377Z,100.00
2023-01-18T04:12:27.344Z,100.00
2023-01-18T04:15:28.754Z,100.00
2023-01-18T04:18:30.121Z,100.00
2023-01-18T04:21:31.505Z,100.00
2023-01-18T04:24:32.922Z,100.00
2023-01-18T04:27:34.437Z,100.00
2023-01-18T04:30:35.831Z,100.00
2023-01-18T04:33:37.279Z,100.00
2023-01-18T04:36:38.776Z,100.00
2023-01-18T04:39:40.176Z,100.00
2023-01-18T04:42:41.595Z,100.00
2023-01-18T04:45:43.087Z,100.00
2023-01-18T04:48:44.548Z,100.00
2023-01-18T04:51:46.834Z,100.00
2023-01-18T04:54:48.226Z,100.00
2023-01-18T04:57:56.504Z,100.00
2023-01-18T05:01:01.682Z,100.00
2023-01-18T05:04:03.491Z,100.00
2023-01-18T05:07:04.941Z,100.00
2023-01-18T05:10:06.664Z,100.00
2023-01-18T05:13:08.150Z,100.00
2023-01-18T05:16:15.042Z,100.00
2023-01-18T05:19:16.415Z,100.00
2023-01-18T05:22:17.807Z,100.00
2023-01-18T05:25:19.218Z,100.00
2023-01-18T05:28:22.073Z,100.00
2023-01-18T05:31:23.845Z,100.00
2023-01-18T05:34:27.134Z,100.00
2023-01-18T05:37:28.507Z,100.00
2023-01-18T05:40:29.936Z,100.00
2023-01-18T05:43:31.774Z,100.00
2023-01-18T05:46:33.167Z,100.00
2023-01-18T05:49:34.547Z,100.00
2023-01-18T05:52:35.949Z,100.00
2023-01-18T05:55:37.491Z,100.00
2023-01-18T05:58:38.937Z,100.00
2023-01-18T06:01:40.459Z,100.00
2023-01-18T06:04:44.192Z,100.00
2023-01-18T06:07:45.623Z,100.00
2023-01-18T06:10:57.850Z,100.00
2023-01-18T06:13:59.525Z,100.00
2023-01-18T06:17:01.624Z,100.00
2023-01-18T06:20:04.718Z,100.00
2023-01-18T06:23:06.109Z,100.00
2023-01-18T06:26:07.702Z,100.00
2023-01-18T06:29:09.188Z,100.00
2023-01-18T06:32:10.597Z,100.00
2023-01-18T06:35:11.982Z,100.00
2023-01-18T06:38:13.978Z,100.00
2023-01-18T06:41:15.897Z,100.00
2023-01-18T06:44:17.390Z,100.00
2023-01-18T06:47:19.885Z,100.00
2023-01-18T06:50:22.448Z,100.00
2023-01-18T06:53:24.422Z,100.00
2023-01-18T06:56:26.765Z,100.00
2023-01-18T06:59:28.464Z,100.00
2023-01-18T07:02:29.845Z,100.00
2023-01-18T07:05:31.257Z,100.00
2023-01-18T07:08:32.925Z,100.00
2023-01-18T07:11:35.728Z,100.00
2023-01-18T07:14:37.285Z,100.00
2023-01-18T07:17:38.679Z,100.00
2023-01-18T07:20:40.073Z,100.00
2023-01-18T07:23:42.298Z,100.00
2023-01-18T07:26:44.086Z,100.00
2023-01-18T07:29:45.489Z,100.00
2023-01-18T07:32:50.919Z,100.00
2023-01-18T07:35:53.879Z,100.00
2023-01-18T07:38:55.579Z,100.00
2023-01-18T07:41:57.052Z,100.00
2023-01-18T07:44:58.439Z,100.00
2023-01-18T07:48:00.620Z,100.00
2023-01-18T07:51:04.627Z,100.00
2023-01-18T07:54:07.162Z,100.00
2023-01-18T07:57:08.639Z,100.00
2023-01-18T08:00:12.046Z,100.00
2023-01-18T08:03:16.855Z,100.00
2023-01-18T08:06:24.906Z,100.00
2023-01-18T08:09:26.523Z,100.00
2023-01-18T08:12:28.039Z,100.00
2023-01-18T08:15:31.288Z,100.00
2023-01-18T08:18:33.329Z,100.00
2023-01-18T08:21:34.757Z,100.00
2023-01-18T08:24:36.739Z,100.00
2023-01-18T08:27:38.790Z,100.00
2023-01-18T08:30:46.089Z,100.00
2023-01-18T08:33:48.730Z,100.00
2023-01-18T08:36:51.035Z,100.00
2023-01-18T08:39:52.447Z,100.00
2023-01-18T08:42:59.626Z,100.00
2023-01-18T08:46:01.334Z,100.00
2023-01-18T08:49:05.669Z,100.00
2023-01-18T08:52:07.398Z,100.00
2023-01-18T08:55:09.228Z,100.00
2023-01-18T08:58:11.913Z,100.00
2023-01-18T09:01:13.675Z,100.00
2023-01-18T09:04:15.103Z,100.00
2023-01-18T09:07:23.030Z,100.00
2023-01-18T09:10:24.602Z,100.00
2023-01-18T09:13:26.125Z,100.00
2023-01-18T09:16:28.298Z,100.00
2023-01-18T09:19:30.068Z,100.00
2023-01-18T09:22:31.456Z,100.00
2023-01-18T09:25:33.198Z,100.00
2023-01-18T09:28:35.493Z,100.00
2023-01-18T09:31:37.181Z,100.00
2023-01-18T09:34:38.971Z,100.00
2023-01-18T09:37:40.429Z,100.00
2023-01-18T09:40:44.615Z,100.00
2023-01-18T09:43:52.206Z,100.00
2023-01-18T09:46:58.557Z,100.00
2023-01-18T09:50:06.613Z,100.00
2023-01-18T09:53:41.376Z,100.00
2023-01-18T09:56:51.926Z,100.00
2023-01-18T09:59:59.374Z,100.00
2023-01-18T10:03:08.842Z,100.00
2023-01-18T10:06:18.486Z,100.00
2023-01-18T10:09:27.165Z,100.00
2023-01-18T10:12:40.922Z,100.00
2023-01-18T10:15:42.524Z,100.00
2023-01-18T10:18:48.801Z,100.00
2023-01-18T10:21:57.811Z,100.00
2023-01-18T10:25:14.819Z,100.00
2023-01-18T10:28:50.381Z,100.00
2023-01-18T10:32:00.471Z,100.00
2023-01-18T10:35:14.199Z,100.00
2023-01-18T10:38:20.864Z,100.00
2023-01-18T10:41:28.958Z,100.00
2023-01-18T10:44:31.529Z,100.00
2023-01-18T10:47:33.906Z,100.00
2023-01-18T10:50:43.909Z,100.00
2023-01-18T10:53:45.314Z,99.76
2023-01-18T10:56:46.712Z,100.00
2023-01-18T10:59:51.416Z,100.00
2023-01-18T11:02:55.540Z,100.00
2023-01-18T11:06:06.898Z,100.00
2023-01-18T11:09:34.208Z,100.00
2023-01-18T11:12:47.723Z,100.00
2023-01-18T11:16:02.428Z,100.00
2023-01-18T11:19:15.872Z,100.00
2023-01-18T11:22:17.441Z,100.00
2023-01-18T11:25:18.976Z,95.43
2023-01-18T11:28:22.659Z,94.11
2023-01-18T11:31:26.266Z,93.66
2023-01-18T11:34:31.423Z,92.03
2023-01-18T11:37:38.267Z,93.38
2023-01-18T11:40:39.665Z,94.98
2023-01-18T11:43:53.122Z,93.16
2023-01-18T11:46:57.883Z,91.60
2023-01-18T11:50:21.378Z,92.04
2023-01-18T11:53:26.593Z,91.36
2023-01-18T11:56:45.136Z,88.30
2023-01-18T11:59:48.658Z,84.91
2023-01-18T12:02:57.809Z,86.75
2023-01-18T12:06:26.933Z,84.84
2023-01-18T12:09:52.431Z,83.51
2023-01-18T12:13:27.823Z,83.54
2023-01-18T12:17:01.533Z,87.00
2023-01-18T12:20:31.204Z,83.56
2023-01-18T12:23:56.960Z,82.35
2023-01-18T12:27:04.031Z,82.92
2023-01-18T12:30:32.823Z,79.40
2023-01-18T12:33:44.195Z,77.75
2023-01-18T12:37:02.634Z,76.90
2023-01-18T12:40:34.516Z,77.26
2023-01-18T12:44:05.404Z,74.56
2023-01-18T12:47:35.006Z,75.66
2023-01-18T12:50:39.263Z,72.43
2023-01-18T12:54:13.299Z,71.43
2023-01-18T12:57:16.946Z,68.98
2023-01-18T13:00:28.256Z,67.77
2023-01-18T13:03:35.313Z,63.96
2023-01-18T13:06:39.496Z,64.02
2023-01-18T13:09:46.437Z,64.72
2023-01-18T13:12:50.813Z,63.35
2023-01-18T13:16:13.582Z,62.71
2023-01-18T13:19:24.800Z,62.90
2023-01-18T13:22:35.633Z,61.13
2023-01-18T13:25:51.248Z,63.00
2023-01-18T13:29:16.750Z,62.71
2023-01-18T13:32:24.647Z,62.29
2023-01-18T13:35:33.446Z,62.19
2023-01-18T13:38:41.512Z,63.92
2023-01-18T13:42:02.248Z,64.48
2023-01-18T13:45:17.156Z,64.50
2023-01-18T13:49:01.576Z,61.71
2023-01-18T13:52:32.560Z,61.52
2023-01-18T13:55:33.961Z,62.90
2023-01-18T13:58:40.164Z,61.56
2023-01-18T14:01:44.049Z,61.02
2023-01-18T14:04:46.116Z,61.73
2023-01-18T14:07:51.788Z,61.89
2023-01-18T14:11:04.317Z,62.07
2023-01-18T14:14:11.770Z,60.99
2023-01-18T14:17:16.389Z,59.58
2023-01-18T14:20:37.968Z,57.18
2023-01-18T14:24:09.493Z,57.48
2023-01-18T14:27:21.866Z,57.78
2023-01-18T14:30:29.539Z,55.58
2023-01-18T14:33:38.037Z,56.32
2023-01-18T14:36:39.431Z,57.54
2023-01-18T14:39:41.039Z,58.58
2023-01-18T14:42:55.787Z,58.33
2023-01-18T14:46:01.333Z,57.14
2023-01-18T14:49:02.801Z,57.00
2023-01-18T14:52:07.739Z,56.94
2023-01-18T14:55:27.064Z,57.16
2023-01-18T14:58:28.808Z,56.67
2023-01-18T15:01:39.105Z,56.43
2023-01-18T15:04:45.343Z,57.40
2023-01-18T15:07:55.761Z,57.47
2023-01-18T15:10:58.198Z,58.57
2023-01-18T15:14:00.082Z,59.14
2023-01-18T15:17:06.112Z,59.41
2023-01-18T15:20:14.470Z,59.88
2023-01-18T15:23:16.191Z,60.86
2023-01-18T15:26:17.573Z,61.83
2023-01-18T15:29:26.431Z,62.20
2023-01-18T15:32:37.397Z,61.51
2023-01-18T15:35:38.877Z,62.51
2023-01-18T15:38:40.307Z,63.60
2023-01-18T15:41:43.601Z,62.06
2023-01-18T15:44:51.512Z,64.29
2023-01-18T15:48:08.049Z,65.04
2023-01-18T15:51:10.883Z,69.34
2023-01-18T15:54:22.865Z,70.27
2023-01-18T15:57:24.356Z,71.44
2023-01-18T16:00:30.689Z,72.01
2023-01-18T16:03:41.166Z,73.00
2023-01-18T16:06:45.385Z,72.86
2023-01-18T16:09:46.832Z,74.11
2023-01-18T16:12:48.380Z,74.81
2023-01-18T16:16:04.959Z,75.13
2023-01-18T16:19:34.769Z,74.90
2023-01-18T16:22:37.111Z,77.55
2023-01-18T16:25:39.107Z,77.33
2023-01-18T16:28:40.875Z,76.18
2023-01-18T16:31:43.953Z,77.63
2023-01-18T16:34:45.561Z,79.95
2023-01-18T16:37:47.995Z,79.10
2023-01-18T16:40:50.849Z,80.40
2023-01-18T16:43:52.243Z,81.38
2023-01-18T16:46:53.862Z,81.99
2023-01-18T16:49:55.297Z,86.15
2023-01-18T16:52:56.711Z,87.40
2023-01-18T16:55:58.093Z,86.79
2023-01-18T16:59:00.682Z,85.09
2023-01-18T17:02:02.273Z,86.07
2023-01-18T17:05:04.022Z,87.66
2023-01-18T17:08:05.399Z,87.96
2023-01-18T17:11:06.955Z,88.86
2023-01-18T17:14:08.622Z,89.98
2023-01-18T17:17:10.851Z,91.64
2023-01-18T17:20:17.994Z,88.87
2023-01-18T17:23:19.429Z,88.09
2023-01-18T17:26:20.892Z,88.72
2023-01-18T17:29:22.521Z,88.14
2023-01-18T17:32:24.021Z,87.64
2023-01-18T17:35:27.692Z,86.63
2023-01-18T17:41:33.660Z,89.23
2023-01-18T17:44:37.413Z,91.84
2023-01-18T17:47:39.208Z,93.45
2023-01-18T17:50:41.582Z,94.84
2023-01-18T17:53:43.425Z,95.01
2023-01-18T17:56:45.214Z,95.34
2023-01-18T17:59:46.639Z,96.29
2023-01-18T18:02:50.938Z,95.86
2023-01-18T18:05:57.603Z,95.65
2023-01-18T18:09:00.485Z,98.07
2023-01-18T18:12:01.964Z,98.45
2023-01-18T18:15:05.024Z,99.14
2023-01-18T18:18:12.300Z,99.71
2023-01-18T18:21:26.154Z,98.90
2023-01-18T18:24:27.559Z,98.92
2023-01-18T18:27:44.455Z,99.25
2023-01-18T18:30:51.293Z,100.00
2023-01-18T18:33:52.791Z,100.00
2023-01-18T18:36:54.271Z,100.00
2023-01-18T18:39:55.897Z,100.00
2023-01-18T18:43:02.363Z,100.00
2023-01-18T18:46:04.293Z,100.00
2023-01-18T18:49:06.833Z,100.00
2023-01-18T18:52:08.259Z,100.00
2023-01-18T18:55:11.184Z,100.00
2023-01-18T18:58:12.752Z,100.00
2023-01-18T19:01:22.559Z,100.00
2023-01-18T19:04:24.805Z,100.00
2023-01-18T19:07:26.796Z,100.00
2023-01-18T19:10:30.216Z,100.00
2023-01-18T19:13:31.637Z,100.00
2023-01-18T19:16:33.181Z,100.00
2023-01-18T19:19:34.703Z,100.00
2023-01-18T19:22:37.911Z,100.00
2023-01-18T19:25:40.485Z,100.00
2023-01-18T19:28:42.085Z,100.00
2023-01-18T19:31:43.614Z,100.00
2023-01-18T19:34:45.007Z,100.00
2023-01-18T19:37:47.361Z,100.00
2023-01-18T19:40:48.881Z,100.00
2023-01-18T19:43:50.561Z,100.00
2023-01-18T19:46:53.888Z,100.00
2023-01-18T19:49:57.187Z,100.00
2023-01-18T19:52:59.603Z,100.00
2023-01-18T19:56:07.173Z,100.00
2023-01-18T19:59:11.211Z,100.00
2023-01-18T20:02:12.822Z,100.00
2023-01-18T20:05:14.347Z,100.00
2023-01-18T20:08:15.812Z,100.00
2023-01-18T20:11:17.340Z,100.00
2023-01-18T20:14:19.548Z,100.00
2023-01-18T20:17:20.979Z,100.00
2023-01-18T20:20:31.850Z,100.00
2023-01-18T20:23:34.061Z,99.63
2023-01-18T20:26:37.721Z,99.76
2023-01-18T20:29:39.660Z,99.86
2023-01-18T20:32:41.119Z,100.00
2023-01-18T20:35:42.921Z,100.00
2023-01-18T20:38:44.440Z,100.00
2023-01-18T20:41:48.610Z,100.00
2023-01-18T20:44:53.471Z,100.00
2023-01-18T20:47:54.977Z,100.00
2023-01-18T20:51:00.564Z,100.00
2023-01-18T20:54:02.287Z,100.00
2023-01-18T20:57:06.947Z,100.00
2023-01-18T21:00:09.177Z,100.00
2023-01-18T21:03:13.831Z,99.97
2023-01-18T21:06:16.012Z,100.00
2023-01-18T21:09:17.514Z,100.00
2023-01-18T21:12:18.989Z,100.00
2023-01-18T21:15:20.420Z,100.00
2023-01-18T21:18:21.916Z,100.00
2023-01-18T21:21:23.857Z,100.00
2023-01-18T21:24:25.311Z,100.00
2023-01-18T21:27:27.176Z,100.00
2023-01-18T21:30:28.711Z,100.00
2023-01-18T21:33:30.189Z,100.00
2023-01-18T21:36:31.743Z,100.00
2023-01-18T21:39:33.236Z,100.00
2023-01-18T21:42:53.327Z,100.00
2023-01-18T21:45:58.648Z,100.00
2023-01-18T21:49:05.140Z,100.00
2023-01-18T21:52:26.419Z,100.00
2023-01-18T21:55:27.978Z,100.00
2023-01-18T21:58:48.212Z,100.00
2023-01-18T22:01:49.758Z,99.75
2023-01-18T22:05:00.327Z,100.00
2023-01-18T22:08:02.110Z,100.00
2023-01-18T22:11:03.788Z,100.00
2023-01-18T22:14:06.188Z,100.00
2023-01-18T22:17:08.431Z,100.00
2023-01-18T22:20:11.218Z,100.00
2023-01-18T22:23:12.597Z,100.00
2023-01-18T22:26:14.224Z,100.00
2023-01-18T22:29:15.693Z,100.00
2023-01-18T22:32:17.200Z,100.00
2023-01-18T22:35:18.770Z,100.00
2023-01-18T22:38:20.168Z,100.00
2023-01-18T22:41:24.981Z,100.00
2023-01-18T22:44:26.457Z,100.00
2023-01-18T22:47:27.919Z,100.00
2023-01-18T22:50:29.359Z,100.00
2023-01-18T22:53:31.901Z,100.00
2023-01-18T22:56:35.114Z,100.00
2023-01-18T22:59:36.527Z,100.00
2023-01-18T23:02:38.229Z,100.00
2023-01-18T23:05:39.663Z,100.00
2023-01-18T23:08:44.050Z,100.00
2023-01-18T23:11:47.455Z,100.00
2023-01-18T23:15:07.491Z,100.00
2023-01-18T23:18:08.887Z,100.00
2023-01-18T23:21:10.296Z,100.00
2023-01-18T23:24:12.002Z,100.00
2023-01-18T23:27:13.400Z,100.00
2023-01-18T23:30:15.185Z,100.00
2023-01-18T23:33:16.575Z,100.00
2023-01-18T23:36:18.108Z,100.00
2023-01-18T23:39:38.193Z,100.00
2023-01-18T23:42:58.238Z,100.00
2023-01-18T23:46:17.894Z,100.00
2023-01-18T23:49:37.994Z,100.00
2023-01-18T23:52:57.747Z,100.00
2023-01-18T23:55:59.527Z,100.00
2023-01-18T23:59:01.038Z,100.00
